createdAt,value
2018-05-03T00:00:25.059Z,100382.07
2018-05-03T00:02:50.898Z,100377.27
2018-05-03T00:05:16.772Z,100374.17
2018-05-03T00:07:42.619Z,100364.50
2018-05-03T00:10:08.499Z,100371.88
2018-05-03T00:12:34.354Z,100358.83
2018-05-03T00:15:00.223Z,100365.92
2018-05-03T00:17:26.067Z,100367.16
2018-05-03T00:19:51.921Z,100361.41
2018-05-03T00:22:17.783Z,100368.76
2018-05-03T00:24:43.628Z,100371.78
2018-05-03T00:27:09.480Z,100373.20
2018-05-03T00:29:35.333Z,100372.14
2018-05-03T00:37:45.252Z,100376.96
2018-05-03T00:40:11.123Z,100374.05
2018-05-03T00:42:36.983Z,100382.73
2018-05-03T00:45:02.841Z,100383.14
2018-05-03T00:47:28.706Z,100379.61
2018-05-03T00:49:54.589Z,100384.05
2018-05-03T00:52:20.432Z,100392.87
2018-05-03T00:54:47.289Z,100390.09
2018-05-03T00:57:13.136Z,100390.39
2018-05-03T00:59:38.982Z,100386.56
2018-05-03T01:02:04.841Z,100387.34
2018-05-03T01:04:30.751Z,100380.02
2018-05-03T01:06:56.610Z,100385.73
2018-05-03T01:09:22.466Z,100387.00
2018-05-03T01:11:48.346Z,100384.86
2018-05-03T01:14:14.190Z,100387.30
2018-05-03T01:16:40.051Z,100383.78
2018-05-03T01:19:05.946Z,100392.97
2018-05-03T01:21:31.801Z,100379.78
2018-05-03T01:23:57.694Z,100383.75
2018-05-03T01:26:23.561Z,100381.12
2018-05-03T01:28:49.411Z,100393.78
2018-05-03T01:31:15.260Z,100386.47
2018-05-03T01:33:41.110Z,100390.86
2018-05-03T01:36:19.486Z,100391.70
2018-05-03T01:38:45.347Z,100395.32
2018-05-03T01:41:11.203Z,100392.70
2018-05-03T01:43:37.047Z,100396.66
2018-05-03T01:46:03.081Z,100395.12
2018-05-03T01:48:28.945Z,100405.55
2018-05-03T01:50:54.808Z,100402.69
2018-05-03T01:53:20.659Z,100410.27
2018-05-03T01:55:46.519Z,100418.33
2018-05-03T01:58:12.380Z,100418.73
2018-05-03T02:00:38.257Z,100423.80
2018-05-03T02:03:04.105Z,100430.30
2018-05-03T02:05:29.955Z,100424.57
2018-05-03T02:07:55.816Z,100431.61
2018-05-03T02:10:21.688Z,100430.30
2018-05-03T02:12:47.530Z,100433.36
2018-05-03T02:15:13.348Z,100429.09
2018-05-03T02:17:39.187Z,100425.67
2018-05-03T02:20:05.026Z,100423.52
2018-05-03T02:22:30.913Z,100424.19
2018-05-03T02:24:56.752Z,100424.69
2018-05-03T02:27:22.606Z,100427.77
2018-05-03T02:29:48.452Z,100419.70
2018-05-03T02:32:14.315Z,100421.45
2018-05-03T02:34:40.196Z,100417.71
2018-05-03T02:37:06.065Z,100418.02
2018-05-03T02:39:31.898Z,100421.88
2018-05-03T02:41:57.752Z,100424.53
2018-05-03T02:44:23.612Z,100416.69
2018-05-03T02:46:49.490Z,100421.51
2018-05-03T02:49:15.343Z,100418.11
2018-05-03T02:51:41.196Z,100420.33
2018-05-03T02:54:07.063Z,100420.27
2018-05-03T02:56:32.957Z,100424.74
2018-05-03T02:59:11.364Z,100432.59
2018-05-03T03:01:53.532Z,100430.00
2018-05-03T03:04:37.924Z,100425.24
2018-05-03T03:10:47.699Z,100429.59
2018-05-03T03:13:32.918Z,100427.95
2018-05-03T03:16:17.482Z,100426.64
2018-05-03T03:19:01.965Z,100424.12
2018-05-03T03:21:46.594Z,100429.78
2018-05-03T03:24:31.246Z,100432.45
2018-05-03T03:27:15.911Z,100439.05
2018-05-03T03:33:01.220Z,100436.34
2018-05-03T03:38:46.932Z,100443.95
2018-05-03T03:41:25.232Z,100448.85
2018-05-03T03:44:18.140Z,100456.06
2018-05-03T03:46:44.045Z,100453.13
2018-05-03T03:49:09.913Z,100455.78
2018-05-03T03:51:35.771Z,100446.23
2018-05-03T03:54:01.636Z,100448.25
2018-05-03T03:56:27.497Z,100449.61
2018-05-03T03:58:53.378Z,100452.25
2018-05-03T04:04:09.645Z,100452.28
2018-05-03T04:06:35.483Z,100456.77
2018-05-03T04:09:01.337Z,100455.38
2018-05-03T04:11:27.248Z,100468.57
2018-05-03T04:13:53.081Z,100471.95
2018-05-03T04:16:18.932Z,100472.38
2018-05-03T04:18:57.251Z,100479.76
2018-05-03T04:21:35.479Z,100488.48
2018-05-03T04:24:13.740Z,100478.02
2018-05-03T04:26:39.620Z,100492.30
2018-05-03T04:29:05.471Z,100496.68
2018-05-03T04:31:31.345Z,100491.79
2018-05-03T04:33:57.197Z,100499.60
2018-05-03T04:36:23.088Z,100496.52
2018-05-03T04:38:48.922Z,100495.95
2018-05-03T04:41:14.806Z,100505.92
2018-05-03T04:43:40.642Z,100515.06
2018-05-03T04:46:06.478Z,100519.34
2018-05-03T04:48:32.366Z,100520.56
2018-05-03T04:50:58.226Z,100519.16
2018-05-03T04:53:24.094Z,100535.59
2018-05-03T04:55:49.966Z,100535.21
2018-05-03T04:58:15.844Z,100534.75
2018-05-03T05:00:41.697Z,100543.82
2018-05-03T05:03:07.559Z,100555.02
2018-05-03T05:05:33.421Z,100554.53
2018-05-03T05:07:59.288Z,100556.16
2018-05-03T05:10:25.200Z,100566.45
2018-05-03T05:12:51.056Z,100569.91
2018-05-03T05:15:16.915Z,100570.20
2018-05-03T05:17:42.774Z,100573.98
2018-05-03T05:20:08.649Z,100571.47
2018-05-03T05:22:34.487Z,100576.45
2018-05-03T05:25:00.361Z,100579.08
2018-05-03T05:27:26.207Z,100580.32
2018-05-03T05:29:52.041Z,100582.21
2018-05-03T05:32:17.897Z,100588.83
2018-05-03T05:34:43.791Z,100593.73
2018-05-03T05:37:09.650Z,100598.63
2018-05-03T05:39:35.509Z,100592.23
2018-05-03T05:42:01.358Z,100595.52
2018-05-03T05:44:27.208Z,100597.02
2018-05-03T05:46:53.070Z,100613.01
2018-05-03T05:49:18.931Z,100608.42
2018-05-03T05:51:44.798Z,100611.70
2018-05-03T05:54:10.642Z,100612.75
2018-05-03T05:56:36.582Z,100616.06
2018-05-03T05:59:02.404Z,100620.64
2018-05-03T06:01:28.259Z,100629.12
2018-05-03T06:03:54.128Z,100622.77
2018-05-03T06:06:19.973Z,100630.09
2018-05-03T06:08:45.830Z,100631.25
2018-05-03T06:11:11.677Z,100621.62
2018-05-03T06:13:37.532Z,100633.23
2018-05-03T06:16:03.381Z,100643.66
2018-05-03T06:18:29.227Z,100644.69
2018-05-03T06:20:55.058Z,100644.73
2018-05-03T06:23:20.910Z,100650.30
2018-05-03T06:25:46.745Z,100657.74
2018-05-03T06:28:12.656Z,100661.47
2018-05-03T06:30:38.500Z,100663.94
2018-05-03T06:33:04.345Z,100664.81
2018-05-03T06:35:30.240Z,100669.34
2018-05-03T06:37:56.068Z,100673.73
2018-05-03T06:40:21.929Z,100677.50
2018-05-03T06:42:47.801Z,100676.23
2018-05-03T06:45:13.687Z,100676.94
2018-05-03T06:47:39.511Z,100679.28
2018-05-03T06:50:05.380Z,100679.46
2018-05-03T06:52:31.255Z,100686.30
2018-05-03T06:54:57.091Z,100691.78
2018-05-03T06:57:22.950Z,100693.67
2018-05-03T06:59:48.813Z,100702.09
2018-05-03T07:02:14.694Z,100695.77
2018-05-03T07:04:40.542Z,100697.92
2018-05-03T07:07:06.382Z,100703.05
2018-05-03T07:09:32.236Z,100708.30
2018-05-03T07:11:58.118Z,100707.39
2018-05-03T07:14:23.972Z,100706.30
2018-05-03T07:16:49.850Z,100710.72
2018-05-03T07:19:15.701Z,100711.25
2018-05-03T07:21:41.544Z,100715.64
2018-05-03T07:24:07.417Z,100711.52
2018-05-03T07:26:33.426Z,100709.36
2018-05-03T07:28:59.144Z,100712.96
2018-05-03T07:31:25.013Z,100726.98
2018-05-03T07:33:50.854Z,100728.59
2018-05-03T07:36:16.743Z,100734.81
2018-05-03T07:38:42.590Z,100737.19
2018-05-03T07:41:08.457Z,100738.47
2018-05-03T07:43:34.310Z,100737.36
2018-05-03T07:46:00.157Z,100750.51
2018-05-03T07:48:26.101Z,100761.66
2018-05-03T07:50:51.920Z,100756.83
2018-05-03T07:53:17.767Z,100757.70
2018-05-03T07:55:43.619Z,100753.23
2018-05-03T07:58:09.478Z,100755.20
2018-05-03T08:00:35.342Z,100755.14
2018-05-03T08:03:01.218Z,100748.08
2018-05-03T08:05:27.076Z,100752.44
2018-05-03T08:07:52.927Z,100757.44
2018-05-03T08:10:18.767Z,100757.16
2018-05-03T08:12:44.612Z,100764.72
2018-05-03T08:15:10.466Z,100767.98
2018-05-03T08:17:36.346Z,100766.08
2018-05-03T08:20:02.203Z,100770.18
2018-05-03T08:22:28.110Z,100788.12
2018-05-03T08:24:53.955Z,100782.92
2018-05-03T08:27:19.810Z,100783.84
2018-05-03T08:29:45.666Z,100784.23
2018-05-03T08:32:11.518Z,100788.23
2018-05-03T08:34:37.402Z,100786.95
2018-05-03T08:37:03.266Z,100797.32
2018-05-03T08:39:29.110Z,100810.08
2018-05-03T08:41:54.992Z,100802.25
2018-05-03T08:44:20.856Z,100799.03
2018-05-03T08:46:46.716Z,100807.44
2018-05-03T08:49:12.595Z,100802.94
2018-05-03T08:51:38.436Z,100809.19
2018-05-03T08:54:04.310Z,100803.63
2018-05-03T08:56:30.227Z,100812.85
2018-05-03T08:58:56.099Z,100813.52
2018-05-03T09:01:21.984Z,100819.23
2018-05-03T09:03:47.835Z,100807.76
2018-05-03T09:06:13.681Z,100827.47
2018-05-03T09:08:39.556Z,100829.95
2018-05-03T09:11:05.402Z,100830.63
2018-05-03T09:20:15.931Z,100854.65
2018-05-03T09:22:41.777Z,100853.47
2018-05-03T09:25:07.623Z,100849.22
2018-05-03T09:27:33.491Z,100856.34
2018-05-03T09:29:59.348Z,100857.28
2018-05-03T09:32:25.175Z,100852.12
2018-05-03T09:34:51.023Z,100865.52
2018-05-03T09:37:16.891Z,100859.39
2018-05-03T09:39:42.757Z,100864.72
2018-05-03T09:42:08.616Z,100880.14
2018-05-03T09:44:34.505Z,100877.39
2018-05-03T09:47:00.373Z,100880.53
2018-05-03T09:49:26.265Z,100879.89
2018-05-03T09:51:52.120Z,100879.89
2018-05-03T09:54:17.962Z,100883.59
2018-05-03T09:56:43.823Z,100880.77
2018-05-03T09:59:09.671Z,100870.45
2018-05-03T10:01:35.533Z,100864.94
2018-05-03T10:04:01.449Z,100870.78
2018-05-03T10:06:27.335Z,100870.34
2018-05-03T10:08:53.182Z,100871.75
2018-05-03T10:11:19.056Z,100883.81
2018-05-03T10:13:44.920Z,100879.73
2018-05-03T10:16:10.767Z,100875.56
2018-05-03T10:18:36.617Z,100876.14
2018-05-03T10:21:02.502Z,100876.06
2018-05-03T10:23:28.354Z,100879.42
2018-05-03T10:25:54.223Z,100880.06
2018-05-03T10:28:20.095Z,100870.31
2018-05-03T10:30:45.927Z,100878.51
2018-05-03T10:33:11.774Z,100894.98
2018-05-03T10:35:37.674Z,100893.91
2018-05-03T10:38:03.542Z,100891.52
2018-05-03T10:40:29.395Z,100896.79
2018-05-03T10:42:55.242Z,100895.11
2018-05-03T10:45:21.116Z,100891.36
2018-05-03T10:47:46.970Z,100896.53
2018-05-03T10:50:12.861Z,100896.75
2018-05-03T10:52:38.736Z,100897.39
2018-05-03T10:55:04.609Z,100889.75
2018-05-03T10:57:30.505Z,100898.63
2018-05-03T10:59:56.345Z,100909.17
2018-05-03T11:02:22.211Z,100901.61
2018-05-03T11:04:48.078Z,100892.09
2018-05-03T11:07:13.973Z,100899.50
2018-05-03T11:09:39.867Z,100908.22
2018-05-03T11:12:05.721Z,100906.08
2018-05-03T11:14:31.603Z,100901.98
2018-05-03T11:16:57.435Z,100902.67
2018-05-03T11:19:23.284Z,100909.56
2018-05-03T11:21:49.153Z,100899.74
2018-05-03T11:24:14.995Z,100915.05
2018-05-03T11:26:40.841Z,100907.47
2018-05-03T11:29:06.695Z,100898.09
2018-05-03T11:31:32.633Z,100904.45
2018-05-03T11:33:58.422Z,100906.80
2018-05-03T11:36:24.279Z,100916.33
2018-05-03T11:38:50.129Z,100917.26
2018-05-03T11:41:15.979Z,100917.05
2018-05-03T11:43:41.867Z,100918.77
2018-05-03T11:46:22.684Z,100930.14
2018-05-03T11:48:48.567Z,100928.06
2018-05-03T11:51:14.397Z,100926.86
2018-05-03T11:53:40.357Z,100935.23
2018-05-03T11:56:06.217Z,100939.77
2018-05-03T11:58:32.067Z,100945.19
2018-05-03T12:00:57.920Z,100944.80
2018-05-03T12:03:23.759Z,100946.42
2018-05-03T12:05:49.604Z,100950.59
2018-05-03T12:08:15.479Z,100945.98
2018-05-03T12:10:41.324Z,100948.93
2018-05-03T12:13:07.209Z,100946.40
2018-05-03T12:15:33.069Z,100960.29
2018-05-03T12:17:58.944Z,100954.30
2018-05-03T12:20:24.818Z,100956.14
2018-05-03T12:22:50.670Z,100954.09
2018-05-03T12:25:16.522Z,100959.75
2018-05-03T12:27:42.410Z,100954.14
2018-05-03T12:30:08.289Z,100960.40
2018-05-03T12:32:34.130Z,100957.66
2018-05-03T12:35:00.151Z,100956.53
2018-05-03T12:37:25.926Z,100964.97
2018-05-03T12:39:51.787Z,100954.98
2018-05-03T12:42:17.671Z,100953.84
2018-05-03T12:44:43.520Z,100954.45
2018-05-03T12:47:09.368Z,100956.86
2018-05-03T12:49:35.204Z,100944.12
2018-05-03T12:52:01.068Z,100957.76
2018-05-03T12:54:26.912Z,100953.52
2018-05-03T12:56:52.774Z,100960.80
2018-05-03T12:59:18.637Z,100964.98
2018-05-03T13:01:44.466Z,100962.87
2018-05-03T13:04:10.339Z,100959.10
2018-05-03T13:06:36.187Z,100950.95
2018-05-03T13:09:02.101Z,100951.75
2018-05-03T13:11:27.962Z,100941.80
2018-05-03T13:13:53.836Z,100942.19
2018-05-03T13:16:19.694Z,100943.06
2018-05-03T13:18:45.537Z,100942.30
2018-05-03T13:21:11.393Z,100956.23
2018-05-03T13:23:37.243Z,100953.32
2018-05-03T13:26:03.103Z,100950.02
2018-05-03T13:28:28.928Z,100946.84
2018-05-03T13:30:54.814Z,100946.49
2018-05-03T13:33:20.650Z,100941.13
2018-05-03T13:35:52.563Z,100944.56
2018-05-03T13:38:18.407Z,100948.59
2018-05-03T13:40:44.337Z,100945.08
2018-05-03T13:43:10.290Z,100949.73
2018-05-03T13:45:36.124Z,100959.11
2018-05-03T13:48:01.965Z,100969.82
2018-05-03T13:50:27.839Z,100961.67
2018-05-03T13:52:53.737Z,100958.39
2018-05-03T13:55:19.586Z,100965.10
2018-05-03T13:57:45.424Z,100960.87
2018-05-03T14:00:11.295Z,100957.42
2018-05-03T14:02:37.169Z,100955.20
2018-05-03T14:05:03.045Z,100956.48
2018-05-03T14:07:28.940Z,100955.66
2018-05-03T14:09:54.774Z,100961.48
2018-05-03T14:12:20.602Z,100962.42
2018-05-03T14:14:46.477Z,100956.46
2018-05-03T14:17:12.346Z,100958.66
2018-05-03T14:19:38.214Z,100961.69
2018-05-03T14:22:04.063Z,100961.30
2018-05-03T14:24:29.927Z,100969.76
2018-05-03T14:26:55.756Z,100960.83
2018-05-03T14:29:21.623Z,100964.25
2018-05-03T14:31:47.478Z,100967.82
2018-05-03T14:34:13.337Z,100969.23
2018-05-03T14:36:39.314Z,100968.06
2018-05-03T14:39:05.168Z,100968.39
2018-05-03T14:41:31.026Z,100969.80
2018-05-03T14:43:56.899Z,100963.06
2018-05-03T14:46:22.839Z,100970.66
2018-05-03T14:48:48.698Z,100967.23
2018-05-03T14:54:07.541Z,100963.84
2018-05-03T14:56:33.406Z,100963.80
2018-05-03T14:58:59.783Z,100964.97
2018-05-03T15:01:25.648Z,100973.54
2018-05-03T15:03:51.518Z,100972.02
2018-05-03T15:06:17.378Z,100966.34
2018-05-03T15:08:43.234Z,100983.93
2018-05-03T15:11:09.076Z,100976.01
2018-05-03T15:13:34.962Z,100976.73
2018-05-03T15:16:00.872Z,100965.03
2018-05-03T15:18:26.745Z,100968.60
2018-05-03T15:20:52.591Z,100970.02
2018-05-03T15:23:18.437Z,100975.33
2018-05-03T15:25:44.295Z,100985.61
2018-05-03T15:28:10.162Z,100986.20
2018-05-03T15:30:36.009Z,100988.47
2018-05-03T15:33:01.876Z,100984.11
2018-05-03T15:35:27.811Z,100983.61
2018-05-03T15:37:53.683Z,100983.95
2018-05-03T15:40:19.540Z,100984.66
2018-05-03T15:42:45.406Z,100983.15
2018-05-03T15:45:11.253Z,100990.22
2018-05-03T15:47:37.107Z,100985.56
2018-05-03T15:50:02.976Z,100985.36
2018-05-03T15:55:21.781Z,100986.82
2018-05-03T15:57:47.640Z,100988.91
2018-05-03T16:00:13.494Z,100988.83
2018-05-03T16:02:39.367Z,100996.28
2018-05-03T16:05:05.213Z,100992.94
2018-05-03T16:07:31.156Z,100988.97
2018-05-03T16:09:56.964Z,100996.88
2018-05-03T16:12:22.805Z,100990.35
2018-05-03T16:14:48.679Z,100990.65
2018-05-03T16:17:14.541Z,100989.25
2018-05-03T16:19:40.398Z,101008.97
2018-05-03T16:22:06.285Z,100993.20
2018-05-03T16:24:32.176Z,100986.97
2018-05-03T16:26:58.068Z,100995.88
2018-05-03T16:29:23.974Z,101002.44
2018-05-03T16:31:49.839Z,100997.08
2018-05-03T16:34:15.737Z,101000.20
2018-05-03T16:36:41.587Z,101002.26
2018-05-03T16:39:07.446Z,101004.58
2018-05-03T16:41:33.289Z,101010.37
2018-05-03T16:43:59.130Z,101015.64
2018-05-03T16:46:25.010Z,101009.91
2018-05-03T16:48:50.856Z,101010.46
2018-05-03T16:51:16.739Z,101013.70
2018-05-03T16:53:42.728Z,101016.80
2018-05-03T16:56:08.630Z,101017.43
2018-05-03T16:58:34.495Z,101021.94
2018-05-03T17:01:00.357Z,101026.72
2018-05-03T17:03:26.207Z,101034.27
2018-05-03T17:05:52.083Z,101027.64
2018-05-03T17:08:17.953Z,101034.95
2018-05-03T17:10:43.809Z,101038.03
2018-05-03T17:13:09.730Z,101044.66
2018-05-03T17:15:35.619Z,101046.41
2018-05-03T17:18:01.516Z,101046.63
2018-05-03T17:20:27.429Z,101041.07
2018-05-03T17:22:53.295Z,101054.26
2018-05-03T17:25:19.144Z,101054.77
2018-05-03T17:27:45.005Z,101058.98
2018-05-03T17:30:10.877Z,101067.91
2018-05-03T17:32:36.743Z,101068.56
2018-05-03T17:35:02.659Z,101073.52
2018-05-03T17:37:28.558Z,101072.86
2018-05-03T17:39:54.499Z,101086.66
2018-05-03T17:42:20.422Z,101095.54
2018-05-03T17:44:46.306Z,101105.89
2018-05-03T17:47:12.256Z,101110.58
2018-05-03T17:49:38.177Z,101124.91
2018-05-03T17:52:04.093Z,101122.21
2018-05-03T17:54:30.000Z,101133.25
2018-05-03T17:56:55.905Z,101131.56
2018-05-03T17:59:21.809Z,101139.27
2018-05-03T18:01:47.678Z,101136.48
2018-05-03T18:04:13.545Z,101140.43
2018-05-03T18:06:39.406Z,101143.72
2018-05-03T18:09:05.259Z,101147.66
2018-05-03T18:11:31.196Z,101147.34
2018-05-03T18:13:57.708Z,101158.38
2018-05-03T18:16:23.692Z,101149.05
2018-05-03T18:18:49.560Z,101153.91
2018-05-03T18:21:15.453Z,101166.92
2018-05-03T18:23:41.885Z,101173.27
2018-05-03T18:26:08.672Z,101182.09
2018-05-03T18:28:34.690Z,101184.31
2018-05-03T18:31:00.605Z,101187.22
2018-05-03T18:33:26.558Z,101189.15
2018-05-03T18:35:52.438Z,101193.79
2018-05-03T18:38:18.718Z,101190.25
2018-05-03T18:40:44.611Z,101195.32
2018-05-03T18:43:10.581Z,101203.35
2018-05-03T18:45:37.400Z,101215.03
2018-05-03T18:48:03.393Z,101216.30
2018-05-03T18:50:29.328Z,101213.91
2018-05-03T18:52:55.334Z,101224.61
2018-05-03T18:55:21.244Z,101221.53
2018-05-03T18:57:47.141Z,101221.77
2018-05-03T19:00:13.033Z,101228.66
2018-05-03T19:02:38.963Z,101233.01
2018-05-03T19:05:04.970Z,101239.38
2018-05-03T19:07:30.878Z,101243.12
2018-05-03T19:09:56.776Z,101240.79
2018-05-03T19:12:22.753Z,101243.95
2018-05-03T19:14:48.648Z,101241.52
2018-05-03T19:17:14.516Z,101244.09
2018-05-03T19:19:40.410Z,101254.94
2018-05-03T19:22:06.334Z,101254.91
2018-05-03T19:24:32.376Z,101263.95
2018-05-03T19:26:58.266Z,101265.25
2018-05-03T19:29:24.239Z,101272.88
2018-05-03T19:31:50.038Z,101280.41
2018-05-03T19:34:15.906Z,101275.69
2018-05-03T19:36:41.927Z,101282.86
2018-05-03T19:39:07.829Z,101284.28
2018-05-03T19:41:33.774Z,101292.47
2018-05-03T19:43:59.678Z,101296.39
2018-05-03T19:46:25.612Z,101303.08
2018-05-03T19:48:51.519Z,101306.55
2018-05-03T19:51:17.370Z,101297.50
2018-05-03T19:53:43.289Z,101302.86
2018-05-03T19:56:09.207Z,101301.33
2018-05-03T19:58:35.104Z,101303.91
2018-05-03T20:01:01.011Z,101308.37
2018-05-03T20:03:27.001Z,101317.30
2018-05-03T20:05:52.958Z,101318.83
2018-05-03T20:08:18.978Z,101314.19
2018-05-03T20:10:44.855Z,101318.30
2018-05-03T20:13:10.884Z,101319.84
2018-05-03T20:15:36.902Z,101326.23
2018-05-03T20:18:02.911Z,101329.55
2018-05-03T20:20:28.873Z,101345.21
2018-05-03T20:22:54.829Z,101334.80
2018-05-03T20:25:20.729Z,101339.59
2018-05-03T20:27:47.429Z,101340.02
2018-05-03T20:30:14.421Z,101344.84
2018-05-03T20:32:40.395Z,101347.80
2018-05-03T20:35:06.362Z,101345.36
2018-05-03T20:37:32.234Z,101345.84
2018-05-03T20:39:58.126Z,101347.83
2018-05-03T20:42:24.009Z,101348.58
2018-05-03T20:44:49.899Z,101349.56
2018-05-03T20:47:15.770Z,101354.51
2018-05-03T20:49:42.243Z,101359.73
2018-05-03T20:52:08.217Z,101366.45
2018-05-03T20:54:34.027Z,101367.34
2018-05-03T20:57:00.019Z,101372.47
2018-05-03T20:59:25.887Z,101366.69
2018-05-03T21:01:51.780Z,101373.69
2018-05-03T21:04:17.663Z,101369.80
2018-05-03T21:06:44.363Z,101380.72
2018-05-03T21:09:10.252Z,101377.80
2018-05-03T21:11:36.131Z,101381.28
2018-05-03T21:14:02.091Z,101379.28
2018-05-03T21:16:27.946Z,101374.22
2018-05-03T21:18:53.927Z,101383.12
2018-05-03T21:21:19.801Z,101382.35
2018-05-03T21:23:45.731Z,101381.17
2018-05-03T21:26:11.618Z,101388.79
2018-05-03T21:28:37.565Z,101380.53
2018-05-03T21:31:03.474Z,101388.96
2018-05-03T21:33:29.337Z,101386.12
2018-05-03T21:35:55.206Z,101385.19
2018-05-03T21:38:21.069Z,101387.30
2018-05-03T21:40:47.001Z,101393.39
2018-05-03T21:43:12.864Z,101400.54
2018-05-03T21:45:38.759Z,101398.48
2018-05-03T21:48:04.625Z,101403.84
2018-05-03T21:50:30.532Z,101404.73
2018-05-03T21:52:56.384Z,101406.78
2018-05-03T21:55:22.359Z,101419.48
2018-05-03T21:57:48.215Z,101411.95
2018-05-03T22:00:14.080Z,101418.09
2018-05-03T22:02:39.959Z,101419.52
2018-05-03T22:05:05.809Z,101421.23
2018-05-03T22:07:31.675Z,101425.66
2018-05-03T22:09:58.281Z,101418.66
2018-05-03T22:12:24.138Z,101427.05
2018-05-03T22:14:50.037Z,101425.77
2018-05-03T22:17:15.906Z,101423.16
2018-05-03T22:19:41.782Z,101419.75
2018-05-03T22:22:07.662Z,101407.20
2018-05-03T22:24:33.532Z,101411.18
2018-05-03T22:26:59.402Z,101412.95
2018-05-03T22:29:25.273Z,101425.91
2018-05-03T22:31:51.126Z,101424.13
2018-05-03T22:34:16.994Z,101425.45
2018-05-03T22:36:42.856Z,101435.64
2018-05-03T22:39:08.717Z,101431.26
2018-05-03T22:41:34.579Z,101437.13
2018-05-03T22:44:00.441Z,101429.67
2018-05-03T22:46:26.292Z,101437.61
2018-05-03T22:48:52.177Z,101434.14
2018-05-03T22:51:18.030Z,101438.11
2018-05-03T22:53:43.918Z,101434.64
2018-05-03T22:56:09.769Z,101433.73
2018-05-03T22:58:35.633Z,101430.20
2018-05-03T23:01:01.485Z,101421.87
2018-05-03T23:06:22.510Z,101426.70
2018-05-03T23:08:48.399Z,101424.08
2018-05-03T23:11:14.234Z,101429.38
2018-05-03T23:13:40.091Z,101430.17
2018-05-03T23:16:05.937Z,101427.63
2018-05-03T23:18:31.784Z,101432.45
2018-05-03T23:20:57.617Z,101434.72
2018-05-03T23:23:23.465Z,101433.83
2018-05-03T23:25:49.322Z,101427.80
2018-05-03T23:28:15.185Z,101432.23
2018-05-03T23:30:41.055Z,101425.71
2018-05-03T23:33:06.895Z,101426.25
2018-05-03T23:35:32.751Z,101429.37
2018-05-03T23:37:58.607Z,101425.90
2018-05-03T23:40:24.491Z,101420.25
2018-05-03T23:42:50.350Z,101426.83
2018-05-03T23:45:16.195Z,101431.66
2018-05-03T23:47:42.082Z,101432.12
2018-05-03T23:50:07.932Z,101427.36
2018-05-03T23:52:33.797Z,101429.59
2018-05-03T23:54:59.643Z,101432.20
2018-05-03T23:57:25.508Z,101444.00
2018-05-03T23:59:51.370Z,101445.31
